Time;durP1;ratioP1;P1;durP2;ratioP2;P2;SDS_P1;SDS_P2;PMS_P1;PMS_P2;Temp;Humidity;BMP_temperature;BMP_pressure;BME280_temperature;BME280_humidity;BME280_pressure;Samples;Min_cycle;Max_cycle;Signal;HPM_P1;HPM_P2
2024/02/20 00:01:46;;;;;;;20.87;7.30;;;7.00;99.90;;;;;;5112206;28;20173;-71
2024/02/20 00:04:11;;;;;;;22.43;7.53;;;6.90;99.90;;;;;;5111164;28;20202;-71
2024/02/20 00:06:38;;;;;;;25.07;6.60;;;6.80;99.90;;;;;;5111890;28;20295;-71
2024/02/20 00:09:03;;;;;;;17.17;6.90;;;6.80;99.90;;;;;;5111764;28;20300;-72
2024/02/20 00:11:29;;;;;;;22.10;7.13;;;6.70;99.90;;;;;;5112093;28;20246;-71
2024/02/20 00:13:55;;;;;;;22.30;6.73;;;6.70;99.90;;;;;;5111111;28;20175;-71
2024/02/20 00:16:24;;;;;;;26.67;8.10;;;6.70;99.90;;;;;;5112117;28;20407;-72
2024/02/20 00:18:50;;;;;;;18.33;6.97;;;6.70;99.90;;;;;;5111903;28;20177;-72
2024/02/20 00:21:16;;;;;;;13.67;6.50;;;6.70;99.90;;;;;;5111888;28;20571;-72
2024/02/20 00:23:43;;;;;;;21.00;6.93;;;6.60;99.90;;;;;;5111388;28;20188;-72
2024/02/20 00:26:09;;;;;;;17.80;6.80;;;6.60;99.90;;;;;;5111722;28;20267;-72
2024/02/20 00:28:40;;;;;;;23.50;7.87;;;6.50;99.90;;;;;;5112951;28;20616;-72
2024/02/20 00:31:06;;;;;;;20.23;7.07;;;6.50;99.90;;;;;;5112474;28;20165;-72
2024/02/20 00:33:32;;;;;;;23.67;7.37;;;6.40;99.90;;;;;;5111410;28;20177;-71
2024/02/20 00:35:58;;;;;;;19.40;7.43;;;6.40;99.90;;;;;;5111434;28;20591;-72
2024/02/20 00:38:23;;;;;;;22.67;7.37;;;6.40;99.90;;;;;;5111486;28;20203;-71
2024/02/20 00:40:49;;;;;;;14.23;7.00;;;6.40;99.90;;;;;;5111355;28;20172;-71
2024/02/20 00:43:14;;;;;;;24.80;7.17;;;6.30;99.90;;;;;;5093311;28;20552;-71
2024/02/20 00:45:40;;;;;;;16.33;6.90;;;6.40;99.90;;;;;;5111097;28;20203;-72
2024/02/20 00:48:06;;;;;;;29.00;7.57;;;6.40;99.90;;;;;;5111275;28;20260;-71
2024/02/20 00:50:32;;;;;;;17.07;6.47;;;6.50;99.90;;;;;;5111426;28;20204;-72
2024/02/20 00:52:57;;;;;;;24.67;7.20;;;6.50;99.90;;;;;;5111312;28;20200;-72
2024/02/20 00:55:23;;;;;;;24.27;7.63;;;6.50;99.90;;;;;;5111563;28;20218;-71
2024/02/20 00:57:48;;;;;;;25.00;6.13;;;6.40;99.90;;;;;;5111468;28;20256;-72
2024/02/20 01:00:14;;;;;;;21.33;7.53;;;6.40;99.90;;;;;;5111487;28;20176;-71
2024/02/20 01:02:40;;;;;;;23.03;7.00;;;6.40;99.90;;;;;;5110875;28;20287;-71
2024/02/20 01:05:09;;;;;;;20.73;6.70;;;6.40;99.90;;;;;;5111751;28;20678;-72
2024/02/20 01:07:37;;;;;;;30.60;7.73;;;6.40;99.90;;;;;;5111740;28;20255;-72
2024/02/20 01:10:03;;;;;;;26.07;8.10;;;6.40;99.90;;;;;;5111528;28;20179;-72
2024/02/20 01:12:28;;;;;;;26.70;8.10;;;6.30;99.90;;;;;;5111319;28;20645;-72
2024/02/20 01:14:56;;;;;;;22.30;7.40;;;6.30;99.90;;;;;;5111230;28;20200;-72
2024/02/20 01:17:22;;;;;;;14.70;7.17;;;6.30;99.90;;;;;;5115481;28;20179;-72
2024/02/20 01:19:47;;;;;;;24.00;7.77;;;6.30;99.90;;;;;;5115937;28;20548;-72
2024/02/20 01:22:13;;;;;;;24.40;6.87;;;6.20;99.90;;;;;;5115500;28;20233;-72
2024/02/20 01:24:38;;;;;;;25.93;8.10;;;6.20;99.90;;;;;;5115805;28;20702;-72
2024/02/20 01:27:04;;;;;;;19.53;7.90;;;6.20;99.90;;;;;;5115815;28;20629;-72
2024/02/20 01:29:31;;;;;;;32.67;8.80;;;6.20;99.90;;;;;;5115461;28;20252;-72
2024/02/20 01:31:56;;;;;;;25.37;8.07;;;6.20;99.90;;;;;;5115229;28;20165;-72
2024/02/20 01:34:22;;;;;;;22.30;7.40;;;6.30;99.90;;;;;;5115438;28;20201;-72
2024/02/20 01:36:48;;;;;;;29.23;8.30;;;6.30;99.90;;;;;;5115097;28;20192;-72
2024/02/20 01:39:13;;;;;;;20.37;7.80;;;6.30;99.90;;;;;;5115342;28;20654;-71
2024/02/20 01:41:39;;;;;;;23.07;8.20;;;6.30;99.90;;;;;;5114901;28;20176;-71
2024/02/20 01:44:04;;;;;;;23.70;7.40;;;6.40;99.90;;;;;;5115062;28;20204;-72
2024/02/20 01:46:32;;;;;;;22.33;8.23;;;6.40;99.90;;;;;;5115650;28;20180;-71
2024/02/20 01:48:58;;;;;;;20.17;8.60;;;6.40;99.90;;;;;;5116034;28;20172;-72
2024/02/20 01:51:24;;;;;;;22.33;7.93;;;6.40;99.90;;;;;;5116964;28;20260;-72
2024/02/20 01:53:51;;;;;;;30.07;9.57;;;6.50;99.90;;;;;;5114833;28;20180;-71
2024/02/20 01:56:18;;;;;;;22.00;8.63;;;6.50;99.90;;;;;;5114614;28;20211;-71
2024/02/20 01:58:44;;;;;;;25.00;8.13;;;6.50;99.90;;;;;;5115083;28;20177;-71
2024/02/20 02:01:10;;;;;;;23.07;9.13;;;6.60;99.90;;;;;;5115238;28;20200;-71
2024/02/20 02:03:38;;;;;;;26.87;9.23;;;6.70;99.90;;;;;;5114667;28;20172;-72
2024/02/20 02:06:04;;;;;;;25.63;8.70;;;6.80;99.90;;;;;;5114396;28;20201;-72
2024/02/20 02:08:30;;;;;;;32.63;9.87;;;6.80;99.90;;;;;;5114744;28;20169;-71
2024/02/20 02:10:56;;;;;;;29.43;9.40;;;6.80;99.90;;;;;;5114408;28;20216;-71
2024/02/20 02:13:21;;;;;;;24.03;9.70;;;6.90;99.90;;;;;;5114250;28;20175;-71
2024/02/20 02:15:47;;;;;;;28.43;9.17;;;6.90;99.90;;;;;;5114570;28;20718;-71
2024/02/20 02:18:13;;;;;;;24.77;9.27;;;6.90;99.90;;;;;;5114820;28;20178;-72
2024/02/20 02:20:38;;;;;;;24.70;10.30;;;6.90;99.90;;;;;;5114938;28;20244;-71
2024/02/20 02:23:04;;;;;;;31.47;9.93;;;6.90;99.90;;;;;;5115250;28;20687;-71
2024/02/20 02:25:30;;;;;;;26.40;9.83;;;6.90;99.90;;;;;;5114988;28;20204;-71
2024/02/20 02:27:56;;;;;;;23.43;9.30;;;6.80;99.90;;;;;;5114841;28;20638;-71
2024/02/20 02:30:22;;;;;;;24.37;9.90;;;6.80;99.90;;;;;;5114800;28;20187;-71
2024/02/20 02:32:48;;;;;;;24.87;10.13;;;6.80;99.90;;;;;;5114288;28;21003;-71
2024/02/20 02:35:14;;;;;;;26.50;10.30;;;6.80;99.90;;;;;;5113899;28;20232;-71
2024/02/20 02:37:40;;;;;;;32.47;10.30;;;6.80;99.90;;;;;;5113631;28;20298;-70
2024/02/20 02:40:06;;;;;;;22.50;10.83;;;6.80;99.90;;;;;;5113739;28;20168;-71
2024/02/20 02:42:32;;;;;;;24.33;10.20;;;6.80;99.90;;;;;;5113700;28;20173;-70
2024/02/20 02:44:57;;;;;;;27.87;11.60;;;6.80;99.90;;;;;;5113847;28;20214;-70
2024/02/20 02:47:23;;;;;;;31.37;11.87;;;6.80;99.90;;;;;;5095491;28;20198;-71
2024/02/20 02:49:49;;;;;;;30.73;11.60;;;6.80;99.90;;;;;;5113597;28;20241;-70
2024/02/20 02:52:16;;;;;;;33.77;11.23;;;6.70;99.90;;;;;;5113199;28;20540;-71
2024/02/20 02:54:42;;;;;;;28.43;11.90;;;6.70;99.90;;;;;;5113406;28;20242;-71
2024/02/20 02:57:08;;;;;;;40.93;12.40;;;6.70;99.90;;;;;;5113759;28;20173;-71
2024/02/20 02:59:34;;;;;;;37.27;11.17;;;6.70;99.90;;;;;;5113457;28;20174;-71
2024/02/20 03:02:00;;;;;;;29.53;10.93;;;6.70;99.90;;;;;;5113367;28;20247;-71
2024/02/20 03:04:26;;;;;;;29.03;11.83;;;6.70;99.90;;;;;;5113413;28;20255;-71
2024/02/20 03:06:53;;;;;;;24.60;10.23;;;6.70;99.90;;;;;;5112883;28;20684;-71
2024/02/20 03:09:21;;;;;;;21.80;11.20;;;6.70;99.90;;;;;;5113457;28;20192;-71
2024/02/20 03:11:47;;;;;;;30.73;11.23;;;6.70;99.90;;;;;;5114106;28;20184;-71
2024/02/20 03:14:14;;;;;;;25.47;11.57;;;6.70;99.90;;;;;;5114233;28;20657;-71
2024/02/20 03:16:40;;;;;;;32.90;11.30;;;6.70;99.90;;;;;;5112784;28;20665;-71
2024/02/20 03:19:06;;;;;;;23.90;11.23;;;6.70;99.90;;;;;;5113255;28;20256;-71
2024/02/20 03:21:32;;;;;;;38.30;11.73;;;6.70;99.90;;;;;;5112949;28;20210;-72
2024/02/20 03:23:58;;;;;;;30.87;12.20;;;6.70;99.90;;;;;;5112907;28;20268;-71
2024/02/20 03:26:26;;;;;;;30.03;11.60;;;6.70;99.90;;;;;;5113067;28;20276;-71
2024/02/20 03:28:52;;;;;;;25.03;11.07;;;6.70;99.90;;;;;;5112864;28;20222;-71
2024/02/20 03:31:18;;;;;;;30.10;10.83;;;6.70;99.90;;;;;;5112851;28;20176;-71
2024/02/20 03:33:44;;;;;;;28.03;11.43;;;6.70;99.90;;;;;;5112471;28;20470;-71
2024/02/20 03:36:09;;;;;;;28.07;11.17;;;6.70;99.90;;;;;;5112591;28;20189;-71
2024/02/20 03:38:36;;;;;;;31.13;11.80;;;6.70;99.90;;;;;;5112742;28;20171;-72
2024/02/20 03:41:01;;;;;;;25.93;10.93;;;6.70;99.90;;;;;;5112955;28;20172;-71
2024/02/20 03:43:28;;;;;;;28.53;10.80;;;6.70;99.90;;;;;;5112693;28;20169;-71
2024/02/20 03:45:54;;;;;;;26.47;11.00;;;6.70;99.90;;;;;;5112730;28;20228;-71
2024/02/20 03:48:19;;;;;;;32.37;12.20;;;6.80;99.90;;;;;;5112902;28;20614;-71
2024/02/20 03:50:45;;;;;;;27.10;11.83;;;6.80;99.90;;;;;;5112830;28;20173;-71
2024/02/20 03:53:11;;;;;;;25.97;12.33;;;6.80;99.90;;;;;;5113360;28;20177;-71
2024/02/20 03:55:36;;;;;;;34.90;11.07;;;6.80;99.90;;;;;;5113032;28;20253;-71
2024/02/20 03:58:02;;;;;;;37.33;12.20;;;6.80;99.90;;;;;;5112380;28;20541;-71
2024/02/20 04:00:28;;;;;;;31.57;12.27;;;6.80;99.90;;;;;;5112582;28;20165;-71
2024/02/20 04:02:56;;;;;;;29.67;11.23;;;6.80;99.90;;;;;;5112600;28;20183;-71
2024/02/20 04:05:22;;;;;;;31.77;12.20;;;6.80;99.90;;;;;;5112562;28;20642;-72
2024/02/20 04:07:48;;;;;;;28.10;12.00;;;6.80;99.90;;;;;;5112389;28;20181;-71
2024/02/20 04:10:14;;;;;;;31.60;11.43;;;6.80;99.90;;;;;;5112474;28;20641;-72
2024/02/20 04:12:44;;;;;;;28.60;12.00;;;6.70;99.90;;;;;;5112261;28;20176;-71
2024/02/20 04:15:14;;;;;;;37.27;14.10;;;6.70;99.90;;;;;;5112264;28;20236;-71
2024/02/20 04:17:40;;;;;;;31.63;11.97;;;6.80;99.90;;;;;;5112370;28;20180;-71
2024/02/20 04:20:08;;;;;;;25.93;12.50;;;6.80;99.90;;;;;;5112210;28;20173;-71
2024/02/20 04:22:37;;;;;;;34.37;12.37;;;6.70;99.90;;;;;;5112412;28;20169;-71
2024/02/20 04:25:03;;;;;;;30.93;11.93;;;6.70;99.90;;;;;;5112281;28;20329;-72
2024/02/20 04:27:29;;;;;;;33.43;13.30;;;6.70;99.90;;;;;;5112107;28;20168;-71
2024/02/20 04:29:55;;;;;;;26.20;11.27;;;6.70;99.90;;;;;;5111883;28;20180;-71
2024/02/20 04:32:21;;;;;;;29.30;12.03;;;6.60;99.90;;;;;;5111879;28;20542;-71
2024/02/20 04:34:47;;;;;;;32.83;12.63;;;6.60;99.90;;;;;;5112690;28;20230;-71
2024/02/20 04:37:14;;;;;;;28.73;12.43;;;6.60;99.90;;;;;;5112650;28;20201;-71
2024/02/20 04:39:40;;;;;;;26.70;12.50;;;6.50;99.90;;;;;;5112053;28;20193;-71
2024/02/20 04:42:06;;;;;;;31.93;12.60;;;6.50;99.90;;;;;;5111955;28;20194;-71
2024/02/20 04:44:31;;;;;;;25.37;12.97;;;6.50;99.90;;;;;;5112323;28;20618;-71
2024/02/20 04:46:57;;;;;;;29.57;13.37;;;6.50;99.90;;;;;;5112154;28;20189;-71
2024/02/20 04:49:22;;;;;;;30.53;14.10;;;6.40;99.90;;;;;;5111887;28;20168;-71
2024/02/20 04:51:48;;;;;;;30.93;13.83;;;6.50;99.90;;;;;;5117056;28;20183;-71
2024/02/20 04:54:14;;;;;;;30.87;14.40;;;6.40;99.90;;;;;;5118161;28;20196;-71
2024/02/20 04:56:40;;;;;;;30.57;13.20;;;6.40;99.90;;;;;;5118478;28;20193;-71
2024/02/20 04:59:05;;;;;;;31.67;14.63;;;6.40;99.90;;;;;;5118679;28;20654;-71
2024/02/20 05:01:31;;;;;;;48.53;14.63;;;6.30;99.90;;;;;;5118623;28;20169;-70
2024/02/20 05:03:57;;;;;;;36.77;14.27;;;6.30;99.90;;;;;;5118436;28;20164;-71
2024/02/20 05:06:23;;;;;;;28.57;14.83;;;6.30;99.90;;;;;;5118640;28;20193;-71
2024/02/20 05:08:49;;;;;;;37.37;15.73;;;6.30;99.90;;;;;;5118654;28;20171;-71
2024/02/20 05:11:14;;;;;;;39.07;15.67;;;6.30;99.90;;;;;;5118564;28;20660;-71
2024/02/20 05:13:41;;;;;;;31.97;15.63;;;6.30;99.90;;;;;;5118491;28;20171;-71
2024/02/20 05:16:07;;;;;;;35.50;15.97;;;6.30;99.90;;;;;;5118629;28;20212;-71
2024/02/20 05:18:32;;;;;;;30.20;15.37;;;6.30;99.90;;;;;;5118507;28;20222;-71
2024/02/20 05:20:58;;;;;;;31.53;15.80;;;6.30;99.90;;;;;;5118815;28;20264;-71
2024/02/20 05:23:23;;;;;;;42.23;15.47;;;6.30;99.90;;;;;;5118537;28;20652;-71
2024/02/20 05:25:49;;;;;;;33.93;15.30;;;6.30;99.90;;;;;;5118508;28;20214;-71
2024/02/20 05:28:14;;;;;;;43.83;16.43;;;6.30;99.90;;;;;;5118369;28;20175;-71
2024/02/20 05:30:40;;;;;;;31.97;16.53;;;6.20;99.90;;;;;;5118247;28;20218;-71
2024/02/20 05:33:06;;;;;;;37.73;16.57;;;6.20;99.90;;;;;;5118402;28;20654;-71
2024/02/20 05:35:32;;;;;;;32.53;15.37;;;6.30;99.90;;;;;;5118326;28;20232;-71
2024/02/20 05:37:58;;;;;;;32.13;15.33;;;6.20;99.90;;;;;;5118090;28;20180;-71
2024/02/20 05:40:24;;;;;;;39.47;16.50;;;6.20;99.90;;;;;;5117993;28;20243;-71
2024/02/20 05:42:49;;;;;;;34.40;15.63;;;6.20;99.90;;;;;;5117952;28;20272;-71
2024/02/20 05:45:18;;;;;;;31.33;17.37;;;6.20;99.90;;;;;;5118039;28;20689;-71
2024/02/20 05:47:43;;;;;;;36.13;16.50;;;6.20;99.90;;;;;;5117684;28;20656;-70
2024/02/20 05:50:11;;;;;;;39.33;16.50;;;6.20;99.90;;;;;;5118129;28;20259;-71
2024/02/20 05:52:39;;;;;;;36.30;15.07;;;6.20;99.90;;;;;;5117955;28;20677;-71
2024/02/20 05:55:06;;;;;;;37.27;15.93;;;6.20;99.90;;;;;;5118539;28;20216;-71
2024/02/20 05:57:32;;;;;;;41.63;15.57;;;6.10;99.90;;;;;;5119812;28;20517;-71
2024/02/20 05:59:58;;;;;;;35.97;15.80;;;6.20;99.90;;;;;;5117831;28;20210;-71
2024/02/20 06:02:24;;;;;;;30.37;15.20;;;6.20;99.90;;;;;;5114827;28;20185;-71
2024/02/20 06:04:50;;;;;;;40.23;16.90;;;6.10;99.90;;;;;;5114662;28;20592;-70
2024/02/20 06:07:16;;;;;;;34.40;15.63;;;6.10;99.90;;;;;;5114870;28;20177;-71
2024/02/20 06:09:43;;;;;;;44.90;16.17;;;6.10;99.90;;;;;;5114590;28;20177;-70
2024/02/20 06:12:09;;;;;;;30.43;15.53;;;6.10;99.90;;;;;;5113894;28;20184;-71
2024/02/20 06:14:43;;;;;;;35.60;15.90;;;6.10;99.90;;;;;;5114541;28;20230;-71
2024/02/20 06:17:08;;;;;;;34.30;15.90;;;6.10;99.90;;;;;;5146789;22;20229;-68
2024/02/20 06:19:34;;;;;;;35.93;15.73;;;6.10;99.90;;;;;;5094231;28;20657;-69
2024/02/20 06:21:59;;;;;;;39.60;15.80;;;6.10;99.90;;;;;;5093788;28;20560;-69
2024/02/20 06:24:25;;;;;;;39.87;16.03;;;6.10;99.90;;;;;;5093956;28;20181;-68
2024/02/20 06:26:51;;;;;;;27.47;14.57;;;6.10;99.90;;;;;;5094222;28;20243;-69
2024/02/20 06:29:16;;;;;;;54.10;17.03;;;6.10;99.90;;;;;;5094184;28;20166;-69
2024/02/20 06:31:42;;;;;;;28.37;14.43;;;6.10;99.90;;;;;;5093617;28;20253;-69
2024/02/20 06:34:09;;;;;;;36.23;16.27;;;6.10;99.90;;;;;;5093506;28;20170;-70
2024/02/20 06:36:35;;;;;;;41.50;15.80;;;6.10;99.90;;;;;;5093836;28;20203;-69
2024/02/20 06:39:02;;;;;;;38.60;15.73;;;6.20;99.90;;;;;;5093650;28;20165;-69
2024/02/20 06:41:28;;;;;;;29.80;15.10;;;6.20;99.90;;;;;;5093670;28;20589;-69
2024/02/20 06:43:54;;;;;;;41.23;16.53;;;6.20;99.90;;;;;;5092773;28;20197;-68
2024/02/20 06:46:19;;;;;;;32.53;15.47;;;6.30;99.90;;;;;;5093326;28;20189;-70
2024/02/20 06:48:46;;;;;;;40.67;14.67;;;6.30;99.90;;;;;;5093447;28;20185;-69
2024/02/20 06:51:12;;;;;;;41.83;16.90;;;6.30;99.90;;;;;;5093455;28;20169;-69
2024/02/20 06:53:37;;;;;;;34.97;15.67;;;6.40;99.90;;;;;;5093275;28;20672;-69
2024/02/20 06:56:03;;;;;;;27.60;14.93;;;6.40;99.90;;;;;;5093186;28;20201;-70
2024/02/20 06:58:29;;;;;;;32.90;15.23;;;6.50;99.90;;;;;;5093107;28;20165;-70
2024/02/20 07:00:55;;;;;;;37.23;15.97;;;6.60;99.90;;;;;;5077427;28;20678;-71
2024/02/20 07:03:20;;;;;;;35.17;15.67;;;6.60;99.90;;;;;;5072480;28;20165;-70
2024/02/20 07:05:46;;;;;;;36.60;16.53;;;6.70;99.90;;;;;;5073914;28;20209;-71
2024/02/20 07:08:12;;;;;;;36.47;15.70;;;6.80;99.90;;;;;;5093048;28;20260;-70
2024/02/20 07:10:39;;;;;;;34.87;14.83;;;6.80;99.90;;;;;;5092900;28;20212;-71
2024/02/20 07:13:04;;;;;;;33.03;16.87;;;6.90;99.90;;;;;;5091856;28;20646;-71
2024/02/20 07:15:30;;;;;;;38.03;16.27;;;6.90;99.90;;;;;;5092451;28;20288;-71
2024/02/20 07:17:56;;;;;;;29.57;15.80;;;6.90;99.90;;;;;;5092720;28;20221;-71
2024/02/20 07:20:22;;;;;;;34.73;15.57;;;7.00;99.90;;;;;;5092517;28;20709;-71
2024/02/20 07:22:49;;;;;;;38.90;15.13;;;7.00;99.90;;;;;;5092461;28;20166;-71
2024/02/20 07:25:18;;;;;;;38.97;15.50;;;7.10;99.90;;;;;;5092538;28;20261;-71
2024/02/20 07:27:43;;;;;;;35.27;14.80;;;7.10;99.90;;;;;;5092494;28;20584;-71
2024/02/20 07:30:10;;;;;;;40.23;15.63;;;7.10;99.90;;;;;;5092400;28;20174;-70
2024/02/20 07:32:36;;;;;;;39.67;16.50;;;7.20;99.90;;;;;;5073846;28;20184;-71
2024/02/20 07:35:01;;;;;;;40.77;16.63;;;7.10;99.90;;;;;;5092067;28;20197;-71
2024/02/20 07:37:27;;;;;;;32.27;16.83;;;7.10;99.90;;;;;;5092709;28;20192;-71
2024/02/20 07:39:53;;;;;;;46.70;17.67;;;7.20;99.90;;;;;;5093354;28;20173;-71
2024/02/20 07:42:19;;;;;;;33.47;16.90;;;7.20;99.90;;;;;;5092381;28;20563;-71
2024/02/20 07:44:44;;;;;;;44.57;18.00;;;7.20;99.90;;;;;;5092341;28;20177;-71
2024/02/20 07:47:10;;;;;;;44.97;17.57;;;7.30;99.90;;;;;;5091848;28;20822;-71
2024/02/20 07:49:36;;;;;;;38.47;19.40;;;7.30;99.90;;;;;;5092214;28;20215;-70
2024/02/20 07:52:02;;;;;;;49.77;19.00;;;7.30;99.90;;;;;;5091677;28;20169;-71
2024/02/20 07:54:28;;;;;;;37.73;17.03;;;7.30;99.90;;;;;;5091944;28;20620;-71
2024/02/20 07:56:54;;;;;;;43.10;18.07;;;7.40;99.90;;;;;;5091968;28;20185;-71
2024/02/20 07:59:20;;;;;;;39.37;16.80;;;7.60;99.90;;;;;;5092095;28;20184;-71
2024/02/20 08:01:52;;;;;;;41.17;18.27;;;7.60;99.90;;;;;;5091971;28;20245;-71
2024/02/20 08:04:22;;;;;;;36.20;19.63;;;7.70;99.90;;;;;;5091649;28;20261;-71
2024/02/20 08:06:48;;;;;;;47.60;19.83;;;7.80;99.90;;;;;;5091803;28;20251;-71
2024/02/20 08:09:14;;;;;;;43.77;20.73;;;7.80;99.90;;;;;;5075684;28;20572;-71
2024/02/20 08:11:40;;;;;;;39.93;18.60;;;7.80;99.90;;;;;;5076838;28;20181;-71
2024/02/20 08:14:05;;;;;;;44.60;20.03;;;7.90;99.90;;;;;;5076755;28;20182;-70
2024/02/20 08:16:32;;;;;;;38.80;19.60;;;7.90;99.90;;;;;;5093223;28;20197;-72
2024/02/20 08:18:58;;;;;;;45.13;20.17;;;8.00;99.90;;;;;;5074460;28;20162;-70
2024/02/20 08:21:24;;;;;;;41.43;19.53;;;8.10;99.90;;;;;;5074251;28;20669;-70
2024/02/20 08:23:50;;;;;;;38.67;19.03;;;8.20;99.90;;;;;;5056650;28;20173;-70
2024/02/20 08:26:16;;;;;;;47.17;18.70;;;8.20;99.90;;;;;;5061796;28;20232;-72
2024/02/20 08:28:42;;;;;;;34.90;18.40;;;8.30;99.90;;;;;;5094581;28;20661;-70
2024/02/20 08:31:11;;;;;;;35.13;19.23;;;8.40;99.90;;;;;;5094176;28;20173;-71
2024/02/20 08:33:37;;;;;;;39.43;18.03;;;8.50;99.90;;;;;;5094715;28;20211;-71
2024/02/20 08:36:03;;;;;;;31.97;17.77;;;8.50;99.90;;;;;;5075519;28;20628;-71
2024/02/20 08:38:28;;;;;;;35.03;17.03;;;8.60;99.90;;;;;;5075275;28;20173;-71
2024/02/20 08:40:54;;;;;;;37.07;18.03;;;8.80;99.90;;;;;;5093592;28;20242;-70
2024/02/20 08:43:20;;;;;;;32.87;17.00;;;8.90;99.90;;;;;;5075434;28;20177;-71
2024/02/20 08:45:46;;;;;;;36.20;17.27;;;9.00;99.90;;;;;;5076274;28;20280;-71
2024/02/20 08:48:11;;;;;;;31.53;17.63;;;9.10;99.90;;;;;;5091378;28;20173;-70
2024/02/20 08:50:37;;;;;;;29.00;16.40;;;9.20;99.90;;;;;;5091155;28;20174;-70
2024/02/20 08:53:10;;;;;;;30.97;16.17;;;9.30;99.90;;;;;;5090820;28;20169;-70
2024/02/20 08:55:36;;;;;;;39.60;17.23;;;9.50;99.90;;;;;;5090975;28;20197;-70
2024/02/20 08:58:03;;;;;;;31.73;16.07;;;9.70;99.90;;;;;;5091203;28;20176;-70
2024/02/20 09:00:30;;;;;;;29.77;14.63;;;9.80;99.90;;;;;;5090631;28;20483;-70
2024/02/20 09:02:57;;;;;;;29.43;16.30;;;9.80;99.90;;;;;;5090841;28;20197;-70
2024/02/20 09:05:24;;;;;;;35.13;17.07;;;9.90;99.90;;;;;;5090841;28;20209;-70
2024/02/20 09:07:50;;;;;;;29.30;15.93;;;9.90;99.90;;;;;;5091298;28;20169;-70
2024/02/20 09:10:16;;;;;;;37.03;16.73;;;10.00;99.90;;;;;;5090996;28;20181;-69
2024/02/20 09:12:41;;;;;;;33.10;17.10;;;10.10;99.90;;;;;;5090938;28;20184;-70
2024/02/20 09:15:07;;;;;;;34.47;16.33;;;10.10;99.90;;;;;;5090637;28;20196;-70
2024/02/20 09:17:33;;;;;;;29.13;16.30;;;10.20;99.90;;;;;;5091087;28;20531;-71
2024/02/20 09:19:59;;;;;;;35.00;15.30;;;10.20;99.90;;;;;;5090746;28;20666;-72
2024/02/20 09:22:26;;;;;;;31.73;15.13;;;10.30;99.90;;;;;;5090874;28;20169;-70
2024/02/20 09:24:55;;;;;;;30.37;16.00;;;10.20;99.90;;;;;;5090983;28;20176;-70
2024/02/20 09:27:21;;;;;;;29.50;15.13;;;10.20;99.90;;;;;;5091268;28;20259;-70
2024/02/20 09:29:46;;;;;;;33.53;16.03;;;10.40;99.90;;;;;;5091946;28;20170;-69
2024/02/20 09:32:13;;;;;;;27.73;14.37;;;10.40;99.90;;;;;;5090750;28;20181;-70
2024/02/20 09:34:38;;;;;;;28.80;15.00;;;10.50;99.90;;;;;;5090699;28;20242;-70
2024/02/20 09:37:04;;;;;;;35.47;16.57;;;10.50;99.90;;;;;;5092483;28;20272;-70
2024/02/20 09:39:29;;;;;;;33.67;15.87;;;10.60;99.90;;;;;;5094742;28;20198;-70
2024/02/20 09:41:59;;;;;;;31.77;15.20;;;10.50;99.90;;;;;;5095067;28;20559;-70
2024/02/20 09:44:26;;;;;;;33.20;15.40;;;10.50;99.90;;;;;;5094608;28;20175;-70
2024/02/20 09:46:55;;;;;;;31.60;15.67;;;10.60;99.90;;;;;;5094524;28;20193;-71
2024/02/20 09:49:22;;;;;;;24.37;14.40;;;10.70;1.00;;;;;;5094623;28;20168;-70
2024/02/20 09:51:48;;;;;;;32.93;15.17;;;10.90;1.00;;;;;;5094814;28;20544;-70
2024/02/20 09:54:15;;;;;;;26.87;14.77;;;11.00;99.90;;;;;;5094720;28;20267;-70
2024/02/20 09:56:42;;;;;;;34.13;15.50;;;11.00;32.60;;;;;;5094389;28;20209;-71
2024/02/20 09:59:09;;;;;;;31.23;15.30;;;11.00;92.30;;;;;;5094503;28;20166;-70
2024/02/20 10:01:36;;;;;;;30.77;15.13;;;11.00;13.20;;;;;;5094324;28;20177;-70
2024/02/20 10:04:04;;;;;;;25.30;14.40;;;11.00;22.40;;;;;;5094275;28;20204;-70
2024/02/20 10:06:30;;;;;;;24.20;13.93;;;11.00;1.00;;;;;;5095191;28;20710;-71
2024/02/20 10:08:56;;;;;;;30.93;15.40;;;11.00;1.00;;;;;;5095388;28;20158;-71
2024/02/20 10:11:22;;;;;;;33.17;15.27;;;10.90;1.00;;;;;;5095259;28;20173;-70
2024/02/20 10:13:52;;;;;;;24.43;14.67;;;11.00;78.30;;;;;;5094896;28;20162;-70
2024/02/20 10:16:18;;;;;;;32.30;14.70;;;11.00;1.00;;;;;;5094241;28;20259;-71
2024/02/20 10:18:55;;;;;;;45.30;16.17;;;11.00;1.00;;;;;;5094041;28;20176;-71
2024/02/20 10:21:20;;;;;;;31.03;15.13;;;11.00;1.00;;;;;;5093882;28;20199;-70
2024/02/20 10:23:46;;;;;;;29.50;15.07;;;11.00;1.00;;;;;;5094184;28;20201;-70
2024/02/20 10:26:17;;;;;;;33.63;15.70;;;11.00;1.00;;;;;;5093570;28;20663;-71
2024/02/20 10:28:43;;;;;;;25.70;13.93;;;11.00;1.00;;;;;;5093597;28;20196;-71
2024/02/20 10:31:08;;;;;;;27.23;14.93;;;10.90;1.00;;;;;;5094418;28;20513;-70
2024/02/20 10:33:34;;;;;;;23.27;14.80;;;10.90;1.00;;;;;;5094630;28;20181;-70
2024/02/20 10:36:04;;;;;;;37.63;15.60;;;11.00;1.00;;;;;;5094301;28;20201;-70
2024/02/20 10:38:30;;;;;;;29.90;14.47;;;11.10;1.00;;;;;;5094210;28;20533;-70
2024/02/20 10:40:57;;;;;;;27.07;13.37;;;11.10;1.00;;;;;;5094017;28;20169;-70
2024/02/20 10:43:25;;;;;;;32.50;14.50;;;10.90;1.00;;;;;;5093812;28;20188;-71
2024/02/20 10:45:51;;;;;;;32.07;14.57;;;10.90;1.00;;;;;;5093982;28;20197;-70
2024/02/20 10:48:21;;;;;;;27.13;13.73;;;10.80;1.00;;;;;;5093331;28;20555;-70
2024/02/20 10:50:47;;;;;;;29.73;15.87;;;10.70;1.00;;;;;;5093922;28;20173;-70
2024/02/20 10:53:14;;;;;;;35.87;13.97;;;10.80;1.00;;;;;;5093177;28;20231;-70
2024/02/20 10:55:42;;;;;;;28.73;13.70;;;10.80;1.00;;;;;;5091664;28;20227;-70
2024/02/20 10:58:15;;;;;;;26.10;14.03;;;10.80;1.00;;;;;;5092823;28;20158;-70
2024/02/20 11:00:44;;;;;;;34.10;13.57;;;11.00;1.00;;;;;;5092278;28;20178;-70
2024/02/20 11:03:11;;;;;;;26.33;13.33;;;11.00;1.00;;;;;;5092453;28;20173;-71
2024/02/20 11:05:36;;;;;;;22.43;12.70;;;11.10;1.00;;;;;;5092733;28;20272;-70
2024/02/20 11:08:09;;;;;;;24.67;13.10;;;11.10;1.00;;;;;;5092683;28;20201;-70
2024/02/20 11:10:35;;;;;;;31.03;12.57;;;11.20;1.00;;;;;;5092539;28;20539;-71
2024/02/20 11:13:14;;;;;;;27.77;13.37;;;11.30;1.00;;;;;;5092105;28;20222;-70
2024/02/20 11:15:40;;;;;;;23.17;11.77;;;11.40;1.00;;;;;;5092528;28;20242;-71
2024/02/20 11:18:15;;;;;;;30.30;11.93;;;11.50;1.00;;;;;;5092580;28;20173;-71
2024/02/20 11:20:41;;;;;;;25.57;11.13;;;11.50;1.00;;;;;;5092500;28;20734;-70
2024/02/20 11:23:10;;;;;;;28.17;11.53;;;11.60;1.00;;;;;;5092269;28;20709;-71
2024/02/20 11:25:38;;;;;;;23.17;10.00;;;11.70;1.00;;;;;;5092324;28;20193;-71
2024/02/20 11:28:13;;;;;;;30.07;10.20;;;11.90;1.00;;;;;;5092264;28;20242;-70
2024/02/20 11:30:40;;;;;;;21.63;9.17;;;12.10;1.00;;;;;;5092352;28;20177;-71
2024/02/20 11:33:16;;;;;;;24.33;9.13;;;12.20;1.00;;;;;;5091925;28;20197;-71
2024/02/20 11:35:44;;;;;;;20.00;8.50;;;12.30;1.00;;;;;;5092597;28;20287;-69
2024/02/20 11:38:12;;;;;;;16.73;7.43;;;12.20;1.00;;;;;;5092354;28;20266;-70
2024/02/20 11:40:39;;;;;;;20.53;7.80;;;12.10;1.00;;;;;;5092318;28;20215;-71
2024/02/20 11:43:05;;;;;;;15.67;7.60;;;12.00;1.00;;;;;;5074096;28;20673;-71
2024/02/20 11:45:33;;;;;;;16.47;8.20;;;12.10;1.00;;;;;;5092272;28;20198;-71
2024/02/20 11:48:12;;;;;;;21.33;7.80;;;12.10;1.00;;;;;;5092534;28;20170;-70
2024/02/20 11:50:40;;;;;;;23.00;7.23;;;12.00;1.00;;;;;;5092280;28;20165;-70
2024/02/20 11:53:15;;;;;;;20.20;8.73;;;12.00;99.90;;;;;;5091822;28;20169;-71
2024/02/20 11:55:57;;;;;;;24.13;8.53;;;12.10;99.90;;;;;;5071584;28;20280;-71
2024/02/20 11:58:23;;;;;;;18.70;6.63;;;12.10;99.90;;;;;;5073449;28;20743;-70
2024/02/20 12:00:54;;;;;;;16.30;7.70;;;12.10;99.90;;;;;;5090559;28;20537;-70
2024/02/20 12:03:37;;;;;;;15.97;8.03;;;12.20;99.90;;;;;;5091529;28;20169;-70
2024/02/20 12:06:05;;;;;;;18.80;7.50;;;12.40;99.90;;;;;;5072978;28;20197;-71
2024/02/20 12:08:53;;;;;;;19.17;7.13;;;12.50;99.90;;;;;;5091487;28;20170;-70
2024/02/20 12:11:20;;;;;;;11.50;6.37;;;12.50;99.90;;;;;;5091468;28;20196;-71
2024/02/20 12:13:50;;;;;;;18.97;6.93;;;12.60;99.90;;;;;;5090783;28;20181;-71
2024/02/20 12:16:26;;;;;;;13.63;6.37;;;12.80;99.90;;;;;;5123690;22;20302;-71
2024/02/20 12:18:53;;;;;;;20.80;6.53;;;12.80;99.90;;;;;;5111811;28;20301;-70
2024/02/20 12:21:27;;;;;;;16.30;6.43;;;12.70;99.90;;;;;;5111730;28;20165;-69
2024/02/20 12:23:54;;;;;;;14.60;6.80;;;12.80;99.90;;;;;;5111639;28;20160;-71
2024/02/20 12:26:20;;;;;;;15.17;6.70;;;12.80;99.90;;;;;;5111325;28;20238;-72
2024/02/20 12:28:47;;;;;;;14.97;6.33;;;12.80;99.90;;;;;;5111426;28;20212;-71
2024/02/20 12:31:20;;;;;;;14.33;5.50;;;12.70;99.90;;;;;;5111403;28;20176;-72
2024/02/20 12:33:45;;;;;;;14.07;6.13;;;12.60;99.90;;;;;;5111685;28;20248;-72
2024/02/20 12:36:11;;;;;;;16.17;5.97;;;12.60;99.90;;;;;;5111587;28;20249;-71